Terminal Aerodrome Forecast
Issued by NWS

Home | Current Version | Previous Version | Text Only | Print | Product List | Glossary Off
Versions: 1 2 3 4 5 6 7 8 9 10 11 12 13 14 15 16

000
FTUS43 KTOP 211534 AAB
TAFMHK
TAF AMD
KMHK 211534Z 2116/2212 28005KT P6SM BKN015
     FM211630 26004KT P6SM FEW030 SCT200=

USA.gov is the U.S. government's official web portal to all federal, state and local government web resources and services.